Time;durP1;ratioP1;P1;durP2;ratioP2;P2;SDS_P1;SDS_P2;PMS_P1;PMS_P2;Temp;Humidity;BMP_temperature;BMP_pressure;BME280_temperature;BME280_humidity;BME280_pressure;Samples;Min_cycle;Max_cycle;Signal;HPM_P1;HPM_P2
2022/11/24 00:00:05;;;;;;;105.13;48.85;;;;;;;0.73;72.31;100129.81;4987612;28;20042;-73
2022/11/24 00:02:31;;;;;;;102.65;49.88;;;;;;;0.63;73.35;100129.63;4988928;28;20046;-72
2022/11/24 00:04:58;;;;;;;103.78;49.65;;;;;;;0.49;73.72;100125.34;4989139;28;20050;-75
2022/11/24 00:07:24;;;;;;;107.25;51.03;;;;;;;0.65;73.44;100117.19;4987376;28;20055;-74
2022/11/24 00:09:51;;;;;;;111.90;50.67;;;;;;;0.42;74.06;100120.63;4988862;28;20106;-73
2022/11/24 00:12:18;;;;;;;115.85;51.20;;;;;;;0.29;75.19;100128.56;4992411;28;20058;-74
2022/11/24 00:14:45;;;;;;;118.57;53.70;;;;;;;0.40;74.55;100126.03;4994334;28;20542;-72
2022/11/24 00:17:12;;;;;;;130.20;52.97;;;;;;;0.33;74.63;100127.44;4994124;28;20054;-74
2022/11/24 00:19:38;;;;;;;129.00;54.50;;;;;;;0.27;75.12;100133.97;4995300;28;20053;-73
2022/11/24 00:22:05;;;;;;;126.88;55.85;;;;;;;0.45;74.49;100128.34;4996537;28;20034;-74
2022/11/24 00:24:31;;;;;;;119.45;53.92;;;;;;;0.74;73.40;100123.59;4994488;28;20054;-74
2022/11/24 00:26:58;;;;;;;116.32;54.53;;;;;;;0.72;73.39;100136.06;4988097;28;20070;-74
2022/11/24 00:29:25;;;;;;;136.07;53.85;;;;;;;0.59;74.16;100129.97;4994618;28;20056;-74
2022/11/24 00:31:51;;;;;;;118.50;52.05;;;;;;;0.56;73.68;100128.41;4993370;28;20051;-74
2022/11/24 00:34:18;;;;;;;136.63;54.08;;;;;;;0.45;74.28;100137.09;4995363;28;20058;-74
2022/11/24 00:36:44;;;;;;;134.25;53.17;;;;;;;0.13;75.53;100135.91;4994411;28;20042;-73
2022/11/24 00:39:13;;;;;;;122.85;55.40;;;;;;;0.39;74.84;100126.13;4996540;28;20043;-74
2022/11/24 00:41:41;;;;;;;116.80;54.60;;;;;;;0.64;74.32;100128.72;4987760;28;20050;-74
2022/11/24 00:44:07;;;;;;;140.25;54.58;;;;;;;0.34;74.71;100129.09;4995255;28;20030;-74
2022/11/24 00:46:34;;;;;;;139.10;55.15;;;;;;;0.32;74.66;100125.72;4995281;28;20058;-74
2022/11/24 00:49:01;;;;;;;126.75;54.20;;;;;;;0.46;74.28;100122.94;4994333;28;20055;-75
2022/11/24 00:51:29;;;;;;;130.20;55.42;;;;;;;0.51;74.17;100120.00;4996312;28;20050;-74
2022/11/24 00:53:56;;;;;;;119.25;54.33;;;;;;;0.57;73.99;100122.16;4995810;28;20110;-73
2022/11/24 00:56:24;;;;;;;115.72;54.40;;;;;;;0.44;74.33;100113.47;4981748;28;20058;-75
2022/11/24 00:58:51;;;;;;;115.95;53.70;;;;;;;0.43;74.28;100117.88;4976078;28;20495;-74
2022/11/24 01:01:20;;;;;;;148.40;55.83;;;;;;;0.40;73.79;100128.69;4977160;28;20055;-73
2022/11/24 01:03:48;;;;;;;151.77;53.55;;;;;;;0.11;75.28;100129.88;4978648;28;20063;-73
2022/11/24 01:06:17;;;;;;;149.68;54.33;;;;;;;0.31;74.73;100128.47;4979644;28;20058;-73
2022/11/24 01:08:45;;;;;;;153.45;54.15;;;;;;;0.27;74.90;100133.97;4978844;28;20051;-72
2022/11/24 01:11:11;;;;;;;117.05;54.30;;;;;;;0.51;74.78;100138.47;4976059;28;20115;-74
2022/11/24 01:13:39;;;;;;;273.83;59.72;;;;;;;-0.34;76.56;100142.66;4979157;28;20043;-75
2022/11/24 01:16:11;;;;;;;196.85;55.00;;;;;;;-0.44;77.75;100145.91;4978421;28;20049;-74
2022/11/24 01:18:38;;;;;;;181.15;56.63;;;;;;;-0.36;77.50;100149.81;4979581;28;20039;-72
2022/11/24 01:21:04;;;;;;;302.00;59.70;;;;;;;-0.61;78.11;100151.47;4978051;28;20054;-74
2022/11/24 01:23:35;;;;;;;244.57;58.83;;;;;;;-0.66;78.08;100154.41;4973879;28;20043;-73
2022/11/24 01:26:06;;;;;;;197.77;60.25;;;;;;;-0.06;77.45;100152.97;4975482;28;20051;-75
2022/11/24 01:28:33;;;;;;;194.85;60.58;;;;;;;0.06;76.49;100135.47;4975312;28;20065;-74
2022/11/24 01:31:02;;;;;;;156.48;60.30;;;;;;;0.14;76.15;100129.66;4976461;28;20051;-75
2022/11/24 01:33:29;;;;;;;158.77;61.83;;;;;;;0.10;76.31;100126.41;4975829;28;20059;-74
2022/11/24 01:35:59;;;;;;;165.70;61.88;;;;;;;-0.02;76.22;100128.13;4974134;28;20047;-73
2022/11/24 01:38:26;;;;;;;144.20;58.97;;;;;;;-0.02;76.08;100128.13;4975615;28;20062;-73
2022/11/24 01:41:06;;;;;;;204.50;62.08;;;;;;;-0.27;77.12;100144.75;4976212;28;20031;-73
2022/11/24 01:43:33;;;;;;;239.90;63.33;;;;;;;-0.18;76.94;100143.28;4976944;28;20055;-74
2022/11/24 01:46:25;;;;;;;142.60;59.25;;;;;;;-0.02;76.30;100143.06;4975552;28;20042;-74
2022/11/24 01:49:05;;;;;;;;;;;;;;;-0.12;76.84;100142.88;4976750;28;20049;-73
2022/11/24 01:51:35;;;;;;;187.43;57.72;;;;;;;-0.79;77.56;100153.53;4976091;28;19922;-74
2022/11/24 01:54:14;;;;;;;205.75;63.08;;;;;;;-0.53;78.50;100151.81;4975323;28;20053;-74
2022/11/24 01:56:45;;;;;;;173.77;60.72;;;;;;;-0.43;78.46;100154.69;4993605;28;20047;-75
2022/11/24 01:59:14;;;;;;;162.98;62.22;;;;;;;-0.27;78.46;100157.09;4993779;28;20453;-75
2022/11/24 02:01:41;;;;;;;178.38;61.90;;;;;;;-0.67;79.77;100158.00;4993529;28;20134;-74
2022/11/24 02:04:12;;;;;;;148.43;61.47;;;;;;;-0.44;79.05;100168.78;4992783;28;20063;-75
2022/11/24 02:07:13;;;;;;;130.93;48.00;;;;;;;-0.33;78.08;100166.28;4993607;28;20058;-74
2022/11/24 02:09:48;;;;;;;145.57;59.85;;;;;;;-0.08;77.35;100169.88;4994732;28;20039;-74
2022/11/24 02:12:14;;;;;;;152.48;57.63;;;;;;;-0.33;77.71;100171.56;4994372;28;20057;-74
2022/11/24 02:14:42;;;;;;;152.77;57.50;;;;;;;-0.16;77.10;100173.00;4994446;28;20047;-74
2022/11/24 02:17:09;;;;;;;154.68;60.20;;;;;;;-0.19;76.77;100173.25;4991623;28;20043;-74
2022/11/24 02:19:38;;;;;;;127.45;57.83;;;;;;;0.18;76.00;100175.97;4994442;28;20055;-74
2022/11/24 02:22:21;;;;;;;132.45;58.33;;;;;;;0.29;75.53;100173.41;4993611;28;20030;-74
2022/11/24 02:25:13;;;;;;;137.15;57.95;;;;;;;0.25;75.28;100171.94;4993863;28;20420;-75
2022/11/24 02:27:43;;;;;;;135.07;55.67;;;;;;;0.10;75.57;100167.75;4993164;28;20043;-73
2022/11/24 02:30:17;;;;;;;136.88;58.72;;;;;;;0.26;75.25;100182.41;4986532;28;20038;-73
2022/11/24 02:32:44;;;;;;;119.05;53.78;;;;;;;0.19;76.10;100170.59;4984698;28;20053;-73
2022/11/24 02:35:11;;;;;;;140.25;57.28;;;;;;;-0.04;75.43;100177.47;4992643;28;20050;-75
2022/11/24 02:37:38;;;;;;;127.03;55.47;;;;;;;0.29;75.38;100183.97;4993044;28;20041;-74
2022/11/24 02:40:05;;;;;;;120.20;55.67;;;;;;;0.10;75.48;100175.69;4991381;28;20056;-74
2022/11/24 02:42:37;;;;;;;122.47;54.83;;;;;;;0.14;75.36;100190.34;4991787;28;20133;-74
2022/11/24 02:45:04;;;;;;;113.78;53.63;;;;;;;0.40;74.52;100191.13;4993296;28;20054;-75
2022/11/24 02:47:30;;;;;;;127.47;56.50;;;;;;;0.25;74.62;100182.50;4993367;28;20042;-73
2022/11/24 02:49:57;;;;;;;133.70;55.90;;;;;;;0.20;74.93;100182.00;4992545;28;20047;-73
2022/11/24 02:52:23;;;;;;;128.23;54.10;;;;;;;-0.01;74.93;100179.91;4993792;28;20110;-73
2022/11/24 02:54:50;;;;;;;125.03;54.17;;;;;;;0.03;74.94;100173.44;4981159;28;20051;-73
2022/11/24 02:57:16;;;;;;;99.95;50.40;;;;;;;0.08;74.87;100164.38;4973912;28;20051;-75
2022/11/24 02:59:43;;;;;;;166.07;54.72;;;;;;;-0.02;75.32;100174.72;4972977;28;20043;-74
2022/11/24 03:02:09;;;;;;;133.60;51.45;;;;;;;0.00;74.57;100163.13;4973145;28;20065;-74
2022/11/24 03:04:36;;;;;;;111.70;51.38;;;;;;;0.10;74.76;100167.75;4974928;28;20056;-74
2022/11/24 03:07:02;;;;;;;158.60;53.05;;;;;;;-0.24;75.19;100180.63;4974922;28;20102;-74
2022/11/24 03:09:29;;;;;;;179.35;50.15;;;;;;;-0.67;77.07;100178.22;4974058;28;20059;-74
2022/11/24 03:11:55;;;;;;;123.65;51.30;;;;;;;-0.30;76.29;100181.88;4974956;28;20035;-73
2022/11/24 03:14:22;;;;;;;156.93;52.22;;;;;;;-0.51;76.16;100173.59;4975011;28;20050;-73
2022/11/24 03:16:48;;;;;;;120.85;51.63;;;;;;;-0.28;76.18;100173.88;4975407;28;20048;-74
2022/11/24 03:19:15;;;;;;;114.47;52.40;;;;;;;-0.15;75.73;100174.72;4975260;28;20050;-74
2022/11/24 03:21:41;;;;;;;115.15;53.45;;;;;;;-0.11;75.14;100181.47;4969338;28;20027;-74
2022/11/24 03:24:07;;;;;;;112.65;50.80;;;;;;;-0.13;75.12;100186.00;4973575;28;20047;-74
2022/11/24 03:26:34;;;;;;;124.75;52.67;;;;;;;-0.14;74.98;100199.28;4973824;28;20113;-74
2022/11/24 03:29:01;;;;;;;110.90;53.67;;;;;;;-0.43;76.23;100202.94;4974894;28;20073;-74
2022/11/24 03:31:27;;;;;;;166.77;53.13;;;;;;;-0.90;77.07;100195.53;4974956;28;20111;-74
2022/11/24 03:33:54;;;;;;;166.40;51.88;;;;;;;-0.91;77.70;100201.75;4974559;28;20031;-73
2022/11/24 03:36:20;;;;;;;150.48;51.30;;;;;;;-0.93;78.07;100199.19;4973626;28;20039;-72
2022/11/24 03:38:47;;;;;;;122.05;50.95;;;;;;;-0.61;77.03;100200.66;4975138;28;20053;-73
2022/11/24 03:41:13;;;;;;;161.00;54.40;;;;;;;-0.39;76.39;100202.75;4973561;28;20053;-74
2022/11/24 03:43:40;;;;;;;128.02;52.92;;;;;;;-0.36;75.87;100194.59;4974069;28;20051;-74
2022/11/24 03:46:10;;;;;;;123.18;53.05;;;;;;;-0.54;76.62;100194.06;4969396;28;20451;-74
2022/11/24 03:48:37;;;;;;;125.72;52.88;;;;;;;-0.25;75.75;100195.59;4970521;28;20046;-74
2022/11/24 03:51:04;;;;;;;137.38;51.65;;;;;;;-0.53;75.98;100206.31;4971677;28;20099;-73
2022/11/24 03:53:32;;;;;;;121.60;51.97;;;;;;;-0.24;75.78;100206.97;4969188;28;20054;-74
2022/11/24 03:56:00;;;;;;;112.45;51.90;;;;;;;-0.09;74.81;100207.72;4970815;28;20069;-74
2022/11/24 03:58:28;;;;;;;114.13;51.90;;;;;;;-0.07;75.10;100208.47;4985200;28;20058;-74
2022/11/24 04:00:55;;;;;;;119.82;52.50;;;;;;;-0.01;74.89;100214.19;4983126;28;20102;-73
2022/11/24 04:03:23;;;;;;;142.10;50.80;;;;;;;-0.60;75.20;100226.94;4984040;28;20051;-75
2022/11/24 04:05:50;;;;;;;127.32;49.00;;;;;;;-0.57;75.90;100231.13;4984650;28;20047;-74
2022/11/24 04:08:17;;;;;;;129.18;49.40;;;;;;;-0.55;76.40;100219.56;4988522;28;20054;-74
2022/11/24 04:10:43;;;;;;;150.80;50.00;;;;;;;-0.61;76.48;100229.66;4989941;28;20046;-74
2022/11/24 04:13:13;;;;;;;114.72;50.83;;;;;;;-0.28;75.59;100227.44;4990061;28;20054;-74
2022/11/24 04:15:40;;;;;;;119.75;50.15;;;;;;;-0.22;74.87;100226.19;4989198;28;20122;-74
2022/11/24 04:18:08;;;;;;;104.50;48.85;;;;;;;-0.07;74.98;100225.13;4987995;28;20051;-75
2022/11/24 04:20:35;;;;;;;111.18;47.75;;;;;;;-0.10;74.48;100222.69;4989322;28;20055;-74
2022/11/24 04:23:02;;;;;;;100.80;47.35;;;;;;;-0.11;74.55;100221.03;4989025;28;20074;-74
2022/11/24 04:25:31;;;;;;;105.72;47.30;;;;;;;-0.06;74.35;100216.28;4989486;28;20118;-74
2022/11/24 04:27:57;;;;;;;102.97;48.78;;;;;;;-0.05;74.43;100210.06;4989868;28;20070;-73
2022/11/24 04:30:26;;;;;;;215.73;52.33;;;;;;;-0.20;74.67;100213.72;4985344;28;20046;-73
2022/11/24 04:32:52;;;;;;;131.27;47.72;;;;;;;-0.17;74.61;100220.59;4984370;28;20043;-73
2022/11/24 04:35:20;;;;;;;115.88;51.10;;;;;;;-0.26;75.43;100224.66;4985394;28;20047;-75
2022/11/24 04:37:46;;;;;;;107.88;49.67;;;;;;;-0.09;75.10;100234.94;4986554;28;20042;-73
2022/11/24 04:40:14;;;;;;;121.22;49.25;;;;;;;-0.38;75.57;100233.41;4989580;28;20047;-74
2022/11/24 04:42:40;;;;;;;110.40;49.88;;;;;;;-0.32;75.59;100244.41;4988983;28;20110;-74
2022/11/24 04:45:07;;;;;;;134.35;46.65;;;;;;;-0.70;77.15;100245.13;4989518;28;20042;-75
2022/11/24 04:47:34;;;;;;;156.85;51.17;;;;;;;-0.73;76.61;100252.38;4988849;28;20046;-75
2022/11/24 04:50:00;;;;;;;230.27;51.25;;;;;;;-1.41;78.30;100261.91;4986476;28;20043;-75
2022/11/24 04:52:29;;;;;;;138.05;48.63;;;;;;;-0.80;77.22;100264.25;4987956;28;20106;-73
2022/11/24 04:54:55;;;;;;;189.45;49.53;;;;;;;-1.27;78.08;100268.09;4986239;28;20046;-75
2022/11/24 04:57:24;;;;;;;121.72;47.13;;;;;;;-0.65;77.03;100268.53;4969309;28;20047;-73
2022/11/24 04:59:51;;;;;;;122.32;50.05;;;;;;;-0.73;77.37;100276.09;4974004;28;20114;-75
2022/11/24 05:02:19;;;;;;;151.20;48.03;;;;;;;-0.59;76.32;100277.84;4973248;28;20051;-75
2022/11/24 05:04:46;;;;;;;99.43;45.40;;;;;;;-0.36;75.58;100277.19;4973449;28;20049;-74
2022/11/24 05:07:14;;;;;;;191.50;48.33;;;;;;;-0.96;76.41;100281.03;4972559;28;20059;-75
2022/11/24 05:12:31;;;;;;;104.55;45.10;;;;;;;-0.61;75.87;100277.91;4974195;28;20123;-75
2022/11/24 05:14:59;;;;;;;103.47;44.13;;;;;;;-0.54;75.78;100281.84;4974989;28;20046;-74
2022/11/24 05:17:35;;;;;;;95.68;43.08;;;;;;;-0.45;75.62;100283.03;4974828;28;20063;-72
2022/11/24 05:20:02;;;;;;;90.35;42.80;;;;;;;-0.50;75.47;100286.00;4974636;28;20050;-74
2022/11/24 05:22:29;;;;;;;91.80;43.00;;;;;;;-0.36;75.06;100294.75;4978062;28;20046;-73
2022/11/24 05:24:55;;;;;;;96.38;42.08;;;;;;;-0.20;74.35;100295.44;4977236;28;20047;-74
2022/11/24 05:27:22;;;;;;;109.95;42.70;;;;;;;-0.54;74.31;100294.16;4975339;28;20047;-75
2022/11/24 05:29:49;;;;;;;115.78;42.90;;;;;;;-0.46;74.59;100300.66;4973863;28;20066;-74
2022/11/24 05:32:15;;;;;;;121.50;44.53;;;;;;;-0.51;74.33;100300.09;4974026;28;20051;-75
2022/11/24 05:34:42;;;;;;;119.55;44.00;;;;;;;-0.82;74.95;100303.84;4974898;28;20130;-74
2022/11/24 05:37:08;;;;;;;209.00;44.67;;;;;;;-1.63;78.36;100308.88;4973807;28;20053;-74
2022/11/24 05:39:35;;;;;;;97.43;41.90;;;;;;;-1.02;76.77;100310.38;4974450;28;20050;-74
2022/11/24 05:42:39;;;;;;;96.63;40.50;;;;;;;-0.65;75.42;100310.69;4975711;28;20051;-74
2022/11/24 05:44:51;;;;;;;115.90;42.50;;;;;;;-0.58;74.95;100304.06;4975810;28;20115;-74
2022/11/24 05:47:18;;;;;;;155.45;44.83;;;;;;;-1.03;76.44;100306.03;4976151;28;20063;-74
2022/11/24 05:49:44;;;;;;;90.35;42.25;;;;;;;-1.03;76.95;100313.94;4975643;28;20051;-74
2022/11/24 05:52:11;;;;;;;128.27;44.17;;;;;;;-0.97;76.41;100308.31;4969954;28;20055;-74
2022/11/24 05:54:38;;;;;;;157.63;43.08;;;;;;;-1.04;75.94;100316.69;4974379;28;20043;-74
2022/11/24 05:57:04;;;;;;;116.82;41.60;;;;;;;-0.87;75.87;100313.84;4993639;28;20047;-74
2022/11/24 05:59:31;;;;;;;160.55;42.58;;;;;;;-1.80;79.01;100322.19;4992895;28;20051;-74
2022/11/24 06:01:57;;;;;;;96.35;41.55;;;;;;;-1.12;77.56;100319.81;4992719;28;20047;-73
2022/11/24 06:04:24;;;;;;;97.47;41.80;;;;;;;-0.82;75.94;100322.28;4992859;28;20057;-72
2022/11/24 06:06:51;;;;;;;93.40;41.65;;;;;;;-0.77;75.03;100320.22;4992385;28;20051;-74
2022/11/24 06:09:17;;;;;;;99.32;43.88;;;;;;;-0.90;75.92;100320.13;4990456;28;20051;-74
2022/11/24 06:11:45;;;;;;;117.38;42.80;;;;;;;-0.52;74.97;100327.41;4993887;28;20060;-74
2022/11/24 06:14:12;;;;;;;101.10;42.40;;;;;;;-0.59;74.44;100323.47;4992944;28;20051;-74
2022/11/24 06:16:38;;;;;;;98.00;40.53;;;;;;;-0.55;74.17;100332.84;4992074;28;20054;-74
2022/11/24 06:19:04;;;;;;;151.85;40.97;;;;;;;-0.95;75.57;100340.66;4992576;28;20042;-74
2022/11/24 06:21:31;;;;;;;93.00;40.25;;;;;;;-0.66;75.04;100343.25;4991953;28;20051;-73
2022/11/24 06:23:57;;;;;;;91.20;39.88;;;;;;;-0.57;74.63;100347.94;4990683;28;20042;-73
2022/11/24 06:26:24;;;;;;;91.93;42.47;;;;;;;-0.59;74.26;100354.25;4991810;28;20046;-73
2022/11/24 06:28:50;;;;;;;91.90;43.85;;;;;;;-0.58;74.33;100367.31;4991815;28;20059;-74
2022/11/24 06:31:17;;;;;;;86.88;41.28;;;;;;;-0.63;74.64;100365.91;4991916;28;20125;-75
2022/11/24 06:33:44;;;;;;;96.35;42.25;;;;;;;-0.67;74.94;100367.91;4991408;28;20070;-73
2022/11/24 06:36:13;;;;;;;99.55;40.05;;;;;;;-0.54;74.08;100362.69;4992901;28;20066;-75
2022/11/24 06:38:39;;;;;;;80.00;39.42;;;;;;;-0.49;73.78;100365.88;4991651;28;20110;-74
2022/11/24 06:41:10;;;;;;;85.18;37.53;;;;;;;-0.47;73.38;100369.25;4994691;28;20127;-74
2022/11/24 06:43:37;;;;;;;94.57;36.83;;;;;;;-0.39;73.52;100374.06;4990048;28;20042;-74
2022/11/24 06:46:04;;;;;;;75.35;37.00;;;;;;;-0.37;73.17;100373.00;4994352;28;20042;-72
2022/11/24 06:48:31;;;;;;;75.00;35.58;;;;;;;-0.27;72.89;100374.09;4994666;28;20053;-74
2022/11/24 06:50:59;;;;;;;73.38;36.05;;;;;;;-0.51;73.57;100370.41;4993903;28;20043;-70
2022/11/24 06:53:29;;;;;;;77.63;36.15;;;;;;;-0.39;73.68;100371.41;4995628;28;20031;-72
2022/11/24 06:55:59;;;;;;;81.63;35.60;;;;;;;-0.39;72.92;100372.25;4987301;28;20110;-72
2022/11/24 06:58:25;;;;;;;68.28;34.72;;;;;;;-0.53;73.17;100375.78;4976454;28;20047;-72
2022/11/24 07:00:52;;;;;;;70.13;34.92;;;;;;;-0.57;73.45;100374.28;4974961;28;20054;-71
2022/11/24 07:03:19;;;;;;;69.00;34.05;;;;;;;-0.60;73.58;100377.09;4976056;28;20031;-72
2022/11/24 07:05:46;;;;;;;76.85;35.55;;;;;;;-0.56;73.50;100380.41;4967546;28;20043;-73
2022/11/24 07:08:12;;;;;;;78.47;35.60;;;;;;;-0.31;72.57;100390.22;4989818;28;20039;-73
2022/11/24 07:10:43;;;;;;;82.88;39.15;;;;;;;-0.37;72.93;100380.06;4975840;28;20043;-74
2022/11/24 07:13:09;;;;;;;76.68;36.42;;;;;;;-0.61;74.00;100388.56;4975396;28;20099;-71
2022/11/24 07:15:36;;;;;;;86.93;35.83;;;;;;;-0.44;73.40;100385.72;5241994;23;20043;-71
2022/11/24 07:18:03;;;;;;;69.80;34.67;;;;;;;-0.41;73.19;100387.31;4950757;28;20078;-73
2022/11/24 07:20:30;;;;;;;75.28;34.30;;;;;;;-0.28;72.90;100390.03;4977116;28;20037;-74
2022/11/24 07:22:57;;;;;;;72.63;34.75;;;;;;;-0.40;72.72;100396.91;4975460;28;20047;-73
2022/11/24 07:25:26;;;;;;;71.85;34.35;;;;;;;-0.32;72.73;100393.81;4976651;28;20110;-73
2022/11/24 07:27:57;;;;;;;66.88;33.45;;;;;;;-0.24;72.60;100392.34;4976133;28;20065;-73
2022/11/24 07:30:25;;;;;;;72.75;35.15;;;;;;;-0.18;72.74;100401.66;4976708;28;20065;-72
2022/11/24 07:32:58;;;;;;;67.00;33.17;;;;;;;-0.11;72.00;100402.13;4975412;28;20047;-72
2022/11/24 07:35:24;;;;;;;68.75;33.28;;;;;;;-0.37;72.23;100411.69;4976041;28;20033;-73
2022/11/24 07:37:57;;;;;;;68.57;33.13;;;;;;;-0.16;71.94;100402.38;4976793;28;20032;-74
2022/11/24 07:40:25;;;;;;;66.90;33.95;;;;;;;0.09;71.20;100403.44;4974314;28;20135;-73
2022/11/24 07:42:52;;;;;;;71.57;33.92;;;;;;;-0.37;72.30;100415.16;4976500;28;20043;-73
2022/11/24 07:45:19;;;;;;;74.03;34.72;;;;;;;-0.21;72.00;100420.31;4975443;28;20031;-73
2022/11/24 07:50:27;;;;;;;76.35;36.03;;;;;;;-0.40;73.00;100427.69;5335525;23;20027;-73
2022/11/24 07:55:42;;;;;;;70.75;33.33;;;;;;;-0.35;72.60;100421.19;5335968;23;20106;-75
2022/11/24 07:58:09;;;;;;;71.72;34.90;;;;;;;-0.14;72.61;100423.41;4993383;28;20043;-72
2022/11/24 08:00:35;;;;;;;75.03;36.33;;;;;;;0.07;71.80;100426.44;4995309;28;20114;-74
2022/11/24 08:03:02;;;;;;;72.38;35.05;;;;;;;-0.06;71.87;100421.09;4994575;28;20033;-74
2022/11/24 08:05:28;;;;;;;73.70;34.58;;;;;;;0.04;72.23;100420.41;4994767;28;20045;-74
2022/11/24 08:07:55;;;;;;;71.85;34.45;;;;;;;0.16;71.61;100429.34;4994941;28;20039;-73
2022/11/24 08:10:21;;;;;;;77.53;37.78;;;;;;;-0.04;71.75;100430.63;4994647;28;20054;-73
2022/11/24 08:12:48;;;;;;;74.75;34.50;;;;;;;0.15;71.33;100424.13;5000734;28;20042;-74
2022/11/24 08:15:14;;;;;;;69.78;33.85;;;;;;;-0.09;72.50;100421.31;4993520;28;20061;-74
2022/11/24 08:17:41;;;;;;;69.78;33.47;;;;;;;-0.03;72.39;100431.47;4993569;28;20050;-74
2022/11/24 08:20:08;;;;;;;72.68;33.58;;;;;;;0.18;71.80;100424.78;4993562;28;20047;-73
2022/11/24 08:22:35;;;;;;;77.25;33.55;;;;;;;0.28;71.67;100430.31;4993510;28;20034;-74
2022/11/24 08:25:01;;;;;;;73.15;34.72;;;;;;;0.04;72.07;100430.13;4993857;28;20051;-74
2022/11/24 08:27:28;;;;;;;71.45;33.38;;;;;;;0.29;71.68;100439.91;4994321;28;20047;-74
2022/11/24 08:29:55;;;;;;;65.82;34.15;;;;;;;0.20;72.14;100424.69;4993517;28;20106;-74
2022/11/24 08:32:21;;;;;;;65.55;34.40;;;;;;;0.31;71.49;100424.81;4991294;28;20041;-74
2022/11/24 08:34:48;;;;;;;69.20;34.72;;;;;;;0.20;71.71;100436.09;4997078;28;20034;-73
2022/11/24 08:37:14;;;;;;;69.57;34.35;;;;;;;0.38;71.05;100436.66;4997586;28;20110;-74
2022/11/24 08:39:41;;;;;;;68.53;32.75;;;;;;;0.46;70.95;100436.16;4997641;28;20037;-73
2022/11/24 08:42:08;;;;;;;65.13;33.65;;;;;;;0.32;71.28;100439.69;4997782;28;20046;-71
2022/11/24 08:44:34;;;;;;;67.55;34.35;;;;;;;0.32;71.76;100444.97;4998902;28;20102;-74
2022/11/24 08:47:01;;;;;;;65.63;34.17;;;;;;;0.30;71.93;100441.63;4989619;28;20049;-72
2022/11/24 08:49:28;;;;;;;75.00;34.55;;;;;;;0.03;72.24;100441.63;4996967;28;20103;-74
2022/11/24 08:51:56;;;;;;;65.78;33.38;;;;;;;-0.19;73.77;100439.53;4996695;28;20030;-74
2022/11/24 08:54:24;;;;;;;66.90;31.70;;;;;;;0.32;72.24;100442.34;4996775;28;20035;-72
2022/11/24 08:56:50;;;;;;;65.13;33.35;;;;;;;0.44;71.80;100443.34;4972468;28;20111;-74
2022/11/24 08:59:17;;;;;;;71.55;34.58;;;;;;;0.52;71.65;100447.16;4991489;28;20047;-73
2022/11/24 09:01:43;;;;;;;68.95;34.00;;;;;;;0.56;71.14;100460.16;4970057;28;20095;-72
2022/11/24 09:04:10;;;;;;;67.47;34.25;;;;;;;0.91;70.84;100460.41;4992189;28;20062;-72
2022/11/24 09:06:37;;;;;;;64.10;32.15;;;;;;;0.93;70.50;100463.81;4978250;28;20083;-72
2022/11/24 09:09:03;;;;;;;62.38;32.42;;;;;;;0.95;70.65;100451.31;4978217;28;20051;-73
2022/11/24 09:11:33;;;;;;;69.18;33.10;;;;;;;0.84;70.75;100464.41;4978738;28;20054;-73
2022/11/24 09:13:59;;;;;;;67.03;32.63;;;;;;;1.01;70.60;100462.31;4978024;28;20096;-73
2022/11/24 09:16:27;;;;;;;58.20;31.10;;;;;;;1.20;70.35;100475.13;4970497;28;20061;-73
2022/11/24 09:19:00;;;;;;;66.95;32.58;;;;;;;1.42;69.05;100476.25;4978655;28;20054;-73
2022/11/24 09:21:28;;;;;;;62.60;31.33;;;;;;;1.32;68.65;100468.13;4978783;28;20051;-73
2022/11/24 09:23:55;;;;;;;61.90;32.63;;;;;;;1.34;69.37;100474.16;4978210;28;20099;-73
2022/11/24 09:26:27;;;;;;;63.35;32.10;;;;;;;0.86;70.91;100473.94;4978088;28;20127;-73
2022/11/24 09:28:54;;;;;;;65.20;34.47;;;;;;;1.01;70.33;100472.03;4975150;28;20091;-72
2022/11/24 09:31:24;;;;;;;61.03;31.52;;;;;;;1.24;69.72;100483.69;5167875;23;20043;-73
2022/11/24 09:33:51;;;;;;;63.17;31.77;;;;;;;1.16;69.55;100480.69;4978263;28;20047;-73
2022/11/24 09:36:19;;;;;;;65.45;33.35;;;;;;;0.89;71.55;100479.00;5116987;23;20043;-73
2022/11/24 09:38:46;;;;;;;64.95;33.05;;;;;;;1.01;70.67;100483.44;4978969;28;20063;-72
2022/11/24 09:41:32;;;;;;;61.03;32.42;;;;;;;1.27;70.17;100483.47;4978484;28;20039;-72
2022/11/24 09:46:39;;;;;;;58.00;30.42;;;;;;;1.44;69.17;100488.44;5393294;23;20047;-73
2022/11/24 09:49:15;;;;;;;57.17;31.27;;;;;;;1.46;69.25;100490.94;4977653;28;20113;-73
2022/11/24 09:51:45;;;;;;;56.63;30.55;;;;;;;1.39;69.70;100489.69;4976289;28;20050;-72
2022/11/24 10:08:15;;;;;;;63.78;32.70;;;;;;;1.82;68.43;100497.22;4920921;29;20258;-71
2022/11/24 10:10:56;;;;;;;58.35;32.30;;;;;;;1.62;68.61;100488.09;4919444;29;20109;-73
2022/11/24 10:13:45;;;;;;;67.85;33.47;;;;;;;1.51;69.76;100485.34;4912634;29;20056;-72
2022/11/24 10:16:21;;;;;;;61.10;32.47;;;;;;;1.98;67.99;100489.09;4929773;29;20047;-71
2022/11/24 10:18:59;;;;;;;59.72;29.95;;;;;;;2.34;67.30;100486.41;4918197;29;20044;-71
2022/11/24 10:22:03;;;;;;;60.97;32.65;;;;;;;2.15;66.75;100483.41;5298349;23;20050;-73
2022/11/24 10:25:12;;;;;;;63.22;33.63;;;;;;;2.49;66.94;100500.31;4975954;28;20058;-72
2022/11/24 10:27:43;;;;;;;63.00;32.22;;;;;;;2.63;65.85;100502.78;4954796;28;20036;-72
2022/11/24 10:30:14;;;;;;;57.95;31.52;;;;;;;2.72;65.44;100506.56;4956130;29;20036;-72
2022/11/24 10:32:46;;;;;;;57.85;31.90;;;;;;;2.75;65.66;100502.81;4950801;29;20039;-72
2022/11/24 10:38:05;;;;;;;62.42;32.10;;;;;;;2.76;65.13;100512.47;4989462;28;20053;-73
2022/11/24 10:43:10;;;;;;;59.40;30.23;;;;;;;3.39;63.66;100509.38;5832917;23;20067;-72
2022/11/24 10:45:38;;;;;;;59.95;32.22;;;;;;;3.66;62.64;100510.84;4957084;29;20032;-72
2022/11/24 10:48:26;;;;;;;58.25;32.97;;;;;;;3.71;62.61;100500.69;4960644;28;20031;-72
2022/11/24 10:51:05;;;;;;;57.15;32.55;;;;;;;3.78;62.25;100499.22;4975091;28;20099;-73
2022/11/24 10:56:13;;;;;;;60.08;31.35;;;;;;;4.39;60.69;100504.13;5955963;23;20022;-72
2022/11/24 10:58:39;;;;;;;51.20;30.02;;;;;;;3.01;64.14;100511.47;4975932;28;20038;-73
2022/11/24 11:01:12;;;;;;;53.53;30.50;;;;;;;3.91;62.47;100508.88;4974583;28;20041;-72
2022/11/24 11:03:47;;;;;;;58.50;31.70;;;;;;;3.77;62.86;100515.28;5431374;23;20047;-73
2022/11/24 11:06:24;;;;;;;54.08;30.88;;;;;;;3.64;63.10;100510.09;4975383;28;20045;-72
2022/11/24 11:09:16;;;;;;;52.83;30.38;;;;;;;3.18;64.12;100512.84;4974620;28;20058;-73
2022/11/24 11:17:29;;;;;;;60.20;32.17;;;;;;;2.97;66.34;100517.97;5446212;23;20061;-73
2022/11/24 11:20:01;;;;;;;59.85;34.05;;;;;;;3.12;65.92;100520.28;4968242;28;20035;-73
2022/11/24 11:22:36;;;;;;;58.78;32.35;;;;;;;3.33;65.20;100509.84;4969899;28;20039;-71
2022/11/24 11:25:02;;;;;;;53.55;31.17;;;;;;;3.63;63.88;100503.13;4970093;28;20086;-73
2022/11/24 11:27:29;;;;;;;58.13;32.10;;;;;;;3.66;63.91;100508.19;5068629;23;20055;-74
2022/11/24 11:30:15;;;;;;;62.78;33.15;;;;;;;3.32;65.11;100516.09;4968479;28;20053;-74
2022/11/24 11:33:02;;;;;;;54.15;30.67;;;;;;;3.63;63.97;100509.25;4991083;28;20114;-72
2022/11/24 11:35:49;;;;;;;52.92;29.73;;;;;;;3.58;63.85;100510.56;4995587;28;20061;-73
2022/11/24 11:38:16;;;;;;;54.20;31.25;;;;;;;3.07;65.79;100503.06;4975706;28;20460;-73
2022/11/24 11:40:43;;;;;;;60.42;32.42;;;;;;;3.36;65.48;100500.81;4981418;28;20061;-74
2022/11/24 11:43:25;;;;;;;53.80;30.10;;;;;;;3.27;65.05;100512.09;4995003;28;20041;-74
2022/11/24 11:46:02;;;;;;;53.50;29.60;;;;;;;2.66;67.08;100512.31;4993635;28;20046;-72
2022/11/24 11:48:34;;;;;;;57.00;31.38;;;;;;;3.30;65.25;100507.41;4988139;28;20050;-72
2022/11/24 11:51:09;;;;;;;49.85;29.98;;;;;;;3.35;65.12;100515.88;4971735;28;20212;-74
2022/11/24 11:54:21;;;;;;;54.83;31.90;;;;;;;3.39;64.89;100513.81;4964871;28;20082;-75
2022/11/24 11:57:00;;;;;;;51.95;29.75;;;;;;;3.17;66.13;100512.00;4985029;28;20057;-72